sensor_id;sensor_type;location;lat;lon;timestamp;P1;durP1;ratioP1;P2;durP2;ratioP2
70301;SDS011;57706;56.326;43.882;2024-01-30T00:02:14;15.52;;;6.75;;
70301;SDS011;57706;56.326;43.882;2024-01-30T00:04:40;17.23;;;8.30;;
70301;SDS011;57706;56.326;43.882;2024-01-30T00:07:06;19.67;;;8.27;;
70301;SDS011;57706;56.326;43.882;2024-01-30T00:09:31;13.00;;;7.07;;
70301;SDS011;57706;56.326;43.882;2024-01-30T00:11:57;21.42;;;8.85;;
70301;SDS011;57706;56.326;43.882;2024-01-30T00:14:23;17.80;;;7.90;;
70301;SDS011;57706;56.326;43.882;2024-01-30T00:16:49;21.35;;;8.60;;
70301;SDS011;57706;56.326;43.882;2024-01-30T00:19:16;19.02;;;7.90;;
70301;SDS011;57706;56.326;43.882;2024-01-30T00:21:41;19.48;;;8.80;;
70301;SDS011;57706;56.326;43.882;2024-01-30T00:24:07;16.42;;;7.85;;
70301;SDS011;57706;56.326;43.882;2024-01-30T00:26:33;19.58;;;8.73;;
70301;SDS011;57706;56.326;43.882;2024-01-30T00:28:59;18.17;;;7.72;;
70301;SDS011;57706;56.326;43.882;2024-01-30T00:31:25;23.73;;;9.52;;
70301;SDS011;57706;56.326;43.882;2024-01-30T00:33:51;21.50;;;9.07;;
70301;SDS011;57706;56.326;43.882;2024-01-30T00:36:17;17.88;;;8.48;;
70301;SDS011;57706;56.326;43.882;2024-01-30T00:38:43;22.15;;;8.43;;
70301;SDS011;57706;56.326;43.882;2024-01-30T00:41:09;17.52;;;8.38;;
70301;SDS011;57706;56.326;43.882;2024-01-30T00:43:35;16.52;;;8.30;;
70301;SDS011;57706;56.326;43.882;2024-01-30T00:46:01;19.40;;;9.02;;
70301;SDS011;57706;56.326;43.882;2024-01-30T00:48:27;19.05;;;7.80;;
70301;SDS011;57706;56.326;43.882;2024-01-30T00:50:53;16.95;;;8.60;;
70301;SDS011;57706;56.326;43.882;2024-01-30T00:53:19;16.90;;;7.28;;
70301;SDS011;57706;56.326;43.882;2024-01-30T00:55:44;15.35;;;6.82;;
70301;SDS011;57706;56.326;43.882;2024-01-30T00:58:10;22.83;;;9.70;;
70301;SDS011;57706;56.326;43.882;2024-01-30T01:00:36;20.50;;;7.95;;
70301;SDS011;57706;56.326;43.882;2024-01-30T01:03:02;15.77;;;7.45;;
70301;SDS011;57706;56.326;43.882;2024-01-30T01:05:28;19.65;;;8.23;;
70301;SDS011;57706;56.326;43.882;2024-01-30T01:07:54;20.35;;;7.40;;
70301;SDS011;57706;56.326;43.882;2024-01-30T01:10:20;15.77;;;6.47;;
70301;SDS011;57706;56.326;43.882;2024-01-30T01:12:47;15.52;;;7.05;;
70301;SDS011;57706;56.326;43.882;2024-01-30T01:15:13;17.70;;;8.50;;
70301;SDS011;57706;56.326;43.882;2024-01-30T01:17:39;15.82;;;7.20;;
70301;SDS011;57706;56.326;43.882;2024-01-30T01:20:06;15.30;;;7.25;;
70301;SDS011;57706;56.326;43.882;2024-01-30T01:22:32;17.33;;;7.03;;
70301;SDS011;57706;56.326;43.882;2024-01-30T01:24:59;16.83;;;7.70;;
70301;SDS011;57706;56.326;43.882;2024-01-30T01:27:25;17.50;;;7.47;;
70301;SDS011;57706;56.326;43.882;2024-01-30T01:29:52;18.60;;;8.50;;
70301;SDS011;57706;56.326;43.882;2024-01-30T01:32:18;16.77;;;7.57;;
70301;SDS011;57706;56.326;43.882;2024-01-30T01:34:44;16.05;;;8.05;;
70301;SDS011;57706;56.326;43.882;2024-01-30T01:37:10;16.45;;;6.95;;
70301;SDS011;57706;56.326;43.882;2024-01-30T01:39:36;16.77;;;7.20;;
70301;SDS011;57706;56.326;43.882;2024-01-30T01:42:02;17.90;;;8.05;;
70301;SDS011;57706;56.326;43.882;2024-01-30T01:44:28;15.63;;;7.97;;
70301;SDS011;57706;56.326;43.882;2024-01-30T01:46:54;21.17;;;9.18;;
70301;SDS011;57706;56.326;43.882;2024-01-30T01:49:27;18.48;;;7.85;;
70301;SDS011;57706;56.326;43.882;2024-01-30T01:51:55;20.15;;;8.25;;
70301;SDS011;57706;56.326;43.882;2024-01-30T01:54:25;19.25;;;8.73;;
70301;SDS011;57706;56.326;43.882;2024-01-30T01:56:53;17.27;;;7.18;;
70301;SDS011;57706;56.326;43.882;2024-01-30T01:59:20;18.50;;;8.73;;
70301;SDS011;57706;56.326;43.882;2024-01-30T02:01:46;16.95;;;8.40;;
70301;SDS011;57706;56.326;43.882;2024-01-30T02:04:15;17.38;;;8.88;;
70301;SDS011;57706;56.326;43.882;2024-01-30T02:06:43;16.25;;;7.80;;
70301;SDS011;57706;56.326;43.882;2024-01-30T02:09:10;15.68;;;8.43;;
70301;SDS011;57706;56.326;43.882;2024-01-30T02:11:36;18.02;;;7.70;;
70301;SDS011;57706;56.326;43.882;2024-01-30T02:14:06;16.55;;;7.32;;
70301;SDS011;57706;56.326;43.882;2024-01-30T02:16:32;16.70;;;7.13;;
70301;SDS011;57706;56.326;43.882;2024-01-30T02:18:58;16.40;;;8.50;;
70301;SDS011;57706;56.326;43.882;2024-01-30T02:21:34;18.95;;;8.85;;
70301;SDS011;57706;56.326;43.882;2024-01-30T02:24:00;17.58;;;8.45;;
70301;SDS011;57706;56.326;43.882;2024-01-30T02:26:28;17.92;;;8.63;;
70301;SDS011;57706;56.326;43.882;2024-01-30T02:28:54;16.52;;;9.27;;
70301;SDS011;57706;56.326;43.882;2024-01-30T02:31:20;19.00;;;8.73;;
70301;SDS011;57706;56.326;43.882;2024-01-30T02:33:46;19.90;;;8.77;;
70301;SDS011;57706;56.326;43.882;2024-01-30T02:36:12;21.48;;;8.10;;
70301;SDS011;57706;56.326;43.882;2024-01-30T02:38:37;20.85;;;8.32;;
70301;SDS011;57706;56.326;43.882;2024-01-30T02:41:03;20.67;;;8.73;;
70301;SDS011;57706;56.326;43.882;2024-01-30T02:43:29;18.45;;;9.07;;
70301;SDS011;57706;56.326;43.882;2024-01-30T02:45:55;19.58;;;9.10;;
70301;SDS011;57706;56.326;43.882;2024-01-30T02:48:20;18.55;;;8.18;;
70301;SDS011;57706;56.326;43.882;2024-01-30T02:50:46;18.02;;;8.25;;
70301;SDS011;57706;56.326;43.882;2024-01-30T02:53:12;17.13;;;8.90;;
70301;SDS011;57706;56.326;43.882;2024-01-30T02:55:38;21.92;;;8.32;;
70301;SDS011;57706;56.326;43.882;2024-01-30T02:58:04;16.30;;;8.45;;
70301;SDS011;57706;56.326;43.882;2024-01-30T03:00:29;16.52;;;7.75;;
70301;SDS011;57706;56.326;43.882;2024-01-30T03:02:55;20.38;;;9.30;;
70301;SDS011;57706;56.326;43.882;2024-01-30T03:05:21;18.83;;;9.25;;
70301;SDS011;57706;56.326;43.882;2024-01-30T03:07:47;18.38;;;8.80;;
70301;SDS011;57706;56.326;43.882;2024-01-30T03:10:13;17.05;;;8.38;;
70301;SDS011;57706;56.326;43.882;2024-01-30T03:12:38;14.85;;;6.32;;
70301;SDS011;57706;56.326;43.882;2024-01-30T03:15:04;17.50;;;7.35;;
70301;SDS011;57706;56.326;43.882;2024-01-30T03:17:31;17.33;;;8.32;;
70301;SDS011;57706;56.326;43.882;2024-01-30T03:19:56;16.88;;;7.82;;
70301;SDS011;57706;56.326;43.882;2024-01-30T03:22:22;18.48;;;8.18;;
70301;SDS011;57706;56.326;43.882;2024-01-30T03:24:48;16.67;;;8.68;;
70301;SDS011;57706;56.326;43.882;2024-01-30T03:27:14;23.00;;;9.13;;
70301;SDS011;57706;56.326;43.882;2024-01-30T03:29:39;16.20;;;7.32;;
70301;SDS011;57706;56.326;43.882;2024-01-30T03:32:05;16.50;;;6.65;;
70301;SDS011;57706;56.326;43.882;2024-01-30T03:34:31;17.73;;;7.43;;
70301;SDS011;57706;56.326;43.882;2024-01-30T03:36:57;15.80;;;7.90;;
70301;SDS011;57706;56.326;43.882;2024-01-30T03:39:22;16.77;;;7.90;;
70301;SDS011;57706;56.326;43.882;2024-01-30T03:41:48;18.73;;;8.23;;
70301;SDS011;57706;56.326;43.882;2024-01-30T03:44:14;21.25;;;7.82;;
70301;SDS011;57706;56.326;43.882;2024-01-30T03:46:40;24.60;;;9.35;;
70301;SDS011;57706;56.326;43.882;2024-01-30T03:49:06;17.75;;;7.30;;
70301;SDS011;57706;56.326;43.882;2024-01-30T03:51:31;16.13;;;7.75;;
70301;SDS011;57706;56.326;43.882;2024-01-30T03:53:57;23.02;;;9.35;;
70301;SDS011;57706;56.326;43.882;2024-01-30T03:56:23;14.48;;;7.05;;
70301;SDS011;57706;56.326;43.882;2024-01-30T03:58:51;18.58;;;7.60;;
70301;SDS011;57706;56.326;43.882;2024-01-30T04:01:17;18.63;;;9.40;;
70301;SDS011;57706;56.326;43.882;2024-01-30T04:03:43;18.52;;;6.97;;
70301;SDS011;57706;56.326;43.882;2024-01-30T04:06:10;21.55;;;8.75;;
70301;SDS011;57706;56.326;43.882;2024-01-30T04:08:36;17.15;;;8.43;;
70301;SDS011;57706;56.326;43.882;2024-01-30T04:11:04;16.63;;;8.18;;
70301;SDS011;57706;56.326;43.882;2024-01-30T04:13:31;19.33;;;7.15;;
70301;SDS011;57706;56.326;43.882;2024-01-30T04:16:01;13.80;;;7.22;;
70301;SDS011;57706;56.326;43.882;2024-01-30T04:18:28;17.10;;;8.02;;
70301;SDS011;57706;56.326;43.882;2024-01-30T04:20:55;15.50;;;8.18;;
70301;SDS011;57706;56.326;43.882;2024-01-30T04:23:21;19.35;;;8.32;;
70301;SDS011;57706;56.326;43.882;2024-01-30T04:25:47;14.73;;;7.22;;
70301;SDS011;57706;56.326;43.882;2024-01-30T04:28:13;14.95;;;6.70;;
70301;SDS011;57706;56.326;43.882;2024-01-30T04:30:39;15.52;;;7.30;;
70301;SDS011;57706;56.326;43.882;2024-01-30T04:33:05;14.73;;;7.05;;
70301;SDS011;57706;56.326;43.882;2024-01-30T04:35:31;15.43;;;7.07;;
70301;SDS011;57706;56.326;43.882;2024-01-30T04:37:57;13.52;;;6.65;;
70301;SDS011;57706;56.326;43.882;2024-01-30T04:40:22;11.82;;;5.22;;
70301;SDS011;57706;56.326;43.882;2024-01-30T04:42:48;13.02;;;6.43;;
70301;SDS011;57706;56.326;43.882;2024-01-30T04:45:14;15.30;;;6.70;;
70301;SDS011;57706;56.326;43.882;2024-01-30T04:47:40;11.38;;;5.32;;
70301;SDS011;57706;56.326;43.882;2024-01-30T04:50:06;14.02;;;7.05;;
70301;SDS011;57706;56.326;43.882;2024-01-30T04:52:34;18.33;;;7.50;;
70301;SDS011;57706;56.326;43.882;2024-01-30T04:55:00;12.18;;;6.55;;
70301;SDS011;57706;56.326;43.882;2024-01-30T04:57:26;19.58;;;7.22;;
70301;SDS011;57706;56.326;43.882;2024-01-30T04:59:53;17.33;;;7.43;;
70301;SDS011;57706;56.326;43.882;2024-01-30T05:02:18;12.60;;;5.85;;
70301;SDS011;57706;56.326;43.882;2024-01-30T05:04:44;13.52;;;6.05;;
70301;SDS011;57706;56.326;43.882;2024-01-30T05:07:10;16.38;;;6.75;;
70301;SDS011;57706;56.326;43.882;2024-01-30T05:09:36;15.50;;;6.70;;
70301;SDS011;57706;56.326;43.882;2024-01-30T05:12:02;15.82;;;6.90;;
70301;SDS011;57706;56.326;43.882;2024-01-30T05:14:28;12.57;;;7.00;;
70301;SDS011;57706;56.326;43.882;2024-01-30T05:16:53;12.60;;;6.68;;
70301;SDS011;57706;56.326;43.882;2024-01-30T05:19:19;10.88;;;5.95;;
70301;SDS011;57706;56.326;43.882;2024-01-30T05:21:46;15.15;;;6.80;;
70301;SDS011;57706;56.326;43.882;2024-01-30T05:24:12;16.80;;;8.40;;
70301;SDS011;57706;56.326;43.882;2024-01-30T05:26:38;13.60;;;6.60;;
70301;SDS011;57706;56.326;43.882;2024-01-30T05:29:04;16.15;;;6.72;;
70301;SDS011;57706;56.326;43.882;2024-01-30T05:31:31;16.42;;;6.93;;
70301;SDS011;57706;56.326;43.882;2024-01-30T05:33:57;11.65;;;6.20;;
70301;SDS011;57706;56.326;43.882;2024-01-30T05:36:23;13.75;;;5.82;;
70301;SDS011;57706;56.326;43.882;2024-01-30T05:38:49;15.25;;;5.95;;
70301;SDS011;57706;56.326;43.882;2024-01-30T05:41:15;15.15;;;6.82;;
70301;SDS011;57706;56.326;43.882;2024-01-30T05:43:41;11.00;;;5.47;;
70301;SDS011;57706;56.326;43.882;2024-01-30T05:46:07;14.40;;;7.03;;
70301;SDS011;57706;56.326;43.882;2024-01-30T05:48:32;18.20;;;7.65;;
70301;SDS011;57706;56.326;43.882;2024-01-30T05:51:00;19.17;;;7.65;;
70301;SDS011;57706;56.326;43.882;2024-01-30T05:53:27;19.55;;;7.88;;
70301;SDS011;57706;56.326;43.882;2024-01-30T05:55:53;21.52;;;8.43;;
70301;SDS011;57706;56.326;43.882;2024-01-30T05:58:19;13.63;;;6.75;;
70301;SDS011;57706;56.326;43.882;2024-01-30T06:00:45;13.05;;;6.82;;
70301;SDS011;57706;56.326;43.882;2024-01-30T06:03:10;12.52;;;5.93;;
70301;SDS011;57706;56.326;43.882;2024-01-30T06:05:36;11.70;;;6.60;;
70301;SDS011;57706;56.326;43.882;2024-01-30T06:08:02;13.88;;;6.00;;
70301;SDS011;57706;56.326;43.882;2024-01-30T06:10:28;13.95;;;6.47;;
70301;SDS011;57706;56.326;43.882;2024-01-30T06:12:54;14.32;;;6.28;;
70301;SDS011;57706;56.326;43.882;2024-01-30T06:15:19;13.07;;;6.88;;
70301;SDS011;57706;56.326;43.882;2024-01-30T06:17:46;14.40;;;6.30;;
70301;SDS011;57706;56.326;43.882;2024-01-30T06:20:12;16.83;;;6.32;;
70301;SDS011;57706;56.326;43.882;2024-01-30T06:22:37;12.93;;;5.82;;
70301;SDS011;57706;56.326;43.882;2024-01-30T06:25:03;17.30;;;5.95;;
70301;SDS011;57706;56.326;43.882;2024-01-30T06:27:30;15.05;;;6.60;;
70301;SDS011;57706;56.326;43.882;2024-01-30T06:29:56;12.32;;;5.60;;
70301;SDS011;57706;56.326;43.882;2024-01-30T06:32:21;11.52;;;5.18;;
70301;SDS011;57706;56.326;43.882;2024-01-30T06:34:47;12.57;;;5.85;;
70301;SDS011;57706;56.326;43.882;2024-01-30T06:37:13;13.45;;;5.72;;
70301;SDS011;57706;56.326;43.882;2024-01-30T06:39:39;10.98;;;6.07;;
70301;SDS011;57706;56.326;43.882;2024-01-30T06:42:04;12.77;;;6.07;;
70301;SDS011;57706;56.326;43.882;2024-01-30T06:44:30;17.65;;;6.53;;
70301;SDS011;57706;56.326;43.882;2024-01-30T06:46:56;12.85;;;5.65;;
70301;SDS011;57706;56.326;43.882;2024-01-30T06:49:22;10.70;;;6.10;;
70301;SDS011;57706;56.326;43.882;2024-01-30T06:51:47;11.70;;;6.70;;
70301;SDS011;57706;56.326;43.882;2024-01-30T06:54:13;14.55;;;6.30;;
70301;SDS011;57706;56.326;43.882;2024-01-30T06:56:39;12.13;;;5.53;;
70301;SDS011;57706;56.326;43.882;2024-01-30T06:59:05;11.23;;;6.07;;
70301;SDS011;57706;56.326;43.882;2024-01-30T07:01:31;15.63;;;6.20;;
70301;SDS011;57706;56.326;43.882;2024-01-30T07:03:57;12.30;;;5.50;;
70301;SDS011;57706;56.326;43.882;2024-01-30T07:06:22;14.98;;;6.43;;
70301;SDS011;57706;56.326;43.882;2024-01-30T07:08:49;13.55;;;6.47;;
70301;SDS011;57706;56.326;43.882;2024-01-30T07:11:18;12.25;;;5.68;;
70301;SDS011;57706;56.326;43.882;2024-01-30T07:13:45;13.43;;;5.93;;
70301;SDS011;57706;56.326;43.882;2024-01-30T07:16:12;10.70;;;5.05;;
70301;SDS011;57706;56.326;43.882;2024-01-30T07:18:38;16.08;;;6.22;;
70301;SDS011;57706;56.326;43.882;2024-01-30T07:21:03;14.80;;;6.45;;
70301;SDS011;57706;56.326;43.882;2024-01-30T07:23:30;14.38;;;7.20;;
70301;SDS011;57706;56.326;43.882;2024-01-30T07:25:56;13.93;;;6.13;;
70301;SDS011;57706;56.326;43.882;2024-01-30T07:28:21;16.60;;;6.13;;
70301;SDS011;57706;56.326;43.882;2024-01-30T07:30:47;15.18;;;6.22;;
70301;SDS011;57706;56.326;43.882;2024-01-30T07:33:13;17.80;;;6.70;;
70301;SDS011;57706;56.326;43.882;2024-01-30T07:35:39;14.95;;;6.88;;
70301;SDS011;57706;56.326;43.882;2024-01-30T07:38:05;15.23;;;6.65;;
70301;SDS011;57706;56.326;43.882;2024-01-30T07:40:31;15.90;;;7.25;;
70301;SDS011;57706;56.326;43.882;2024-01-30T07:42:58;10.95;;;5.57;;
70301;SDS011;57706;56.326;43.882;2024-01-30T07:45:24;12.07;;;5.45;;
70301;SDS011;57706;56.326;43.882;2024-01-30T07:47:52;14.02;;;5.78;;
70301;SDS011;57706;56.326;43.882;2024-01-30T07:50:18;10.88;;;6.55;;
70301;SDS011;57706;56.326;43.882;2024-01-30T07:52:44;15.13;;;6.50;;
70301;SDS011;57706;56.326;43.882;2024-01-30T07:55:10;15.93;;;6.40;;
70301;SDS011;57706;56.326;43.882;2024-01-30T07:57:38;11.63;;;5.75;;
70301;SDS011;57706;56.326;43.882;2024-01-30T08:00:04;14.23;;;5.63;;
70301;SDS011;57706;56.326;43.882;2024-01-30T08:02:34;14.40;;;5.90;;
70301;SDS011;57706;56.326;43.882;2024-01-30T08:04:59;14.13;;;6.70;;
70301;SDS011;57706;56.326;43.882;2024-01-30T08:07:25;14.88;;;6.47;;
70301;SDS011;57706;56.326;43.882;2024-01-30T08:09:51;13.05;;;6.68;;
70301;SDS011;57706;56.326;43.882;2024-01-30T08:12:17;20.15;;;7.57;;
70301;SDS011;57706;56.326;43.882;2024-01-30T08:14:43;14.48;;;7.55;;
70301;SDS011;57706;56.326;43.882;2024-01-30T08:17:08;15.40;;;6.32;;
70301;SDS011;57706;56.326;43.882;2024-01-30T08:19:34;16.50;;;7.22;;
70301;SDS011;57706;56.326;43.882;2024-01-30T08:22:00;14.07;;;6.75;;
70301;SDS011;57706;56.326;43.882;2024-01-30T08:24:26;18.63;;;7.47;;
70301;SDS011;57706;56.326;43.882;2024-01-30T08:26:51;14.43;;;6.70;;
70301;SDS011;57706;56.326;43.882;2024-01-30T08:29:17;14.70;;;6.85;;
70301;SDS011;57706;56.326;43.882;2024-01-30T08:31:43;15.70;;;7.10;;
70301;SDS011;57706;56.326;43.882;2024-01-30T08:34:09;17.23;;;6.82;;
70301;SDS011;57706;56.326;43.882;2024-01-30T08:36:35;15.88;;;6.55;;
70301;SDS011;57706;56.326;43.882;2024-01-30T08:39:01;17.85;;;6.90;;
70301;SDS011;57706;56.326;43.882;2024-01-30T08:41:28;13.23;;;6.93;;
70301;SDS011;57706;56.326;43.882;2024-01-30T08:43:54;13.02;;;6.57;;
70301;SDS011;57706;56.326;43.882;2024-01-30T08:46:20;17.30;;;6.07;;
70301;SDS011;57706;56.326;43.882;2024-01-30T08:48:46;14.82;;;7.43;;
70301;SDS011;57706;56.326;43.882;2024-01-30T08:51:13;15.45;;;7.22;;
70301;SDS011;57706;56.326;43.882;2024-01-30T08:53:40;17.38;;;6.65;;
70301;SDS011;57706;56.326;43.882;2024-01-30T08:56:06;15.23;;;6.65;;
70301;SDS011;57706;56.326;43.882;2024-01-30T08:58:32;16.73;;;6.82;;
70301;SDS011;57706;56.326;43.882;2024-01-30T09:00:58;13.38;;;6.25;;
70301;SDS011;57706;56.326;43.882;2024-01-30T09:03:24;14.80;;;7.15;;
70301;SDS011;57706;56.326;43.882;2024-01-30T09:05:50;14.32;;;7.32;;
70301;SDS011;57706;56.326;43.882;2024-01-30T09:08:16;18.45;;;6.63;;
70301;SDS011;57706;56.326;43.882;2024-01-30T09:10:41;17.38;;;7.13;;
70301;SDS011;57706;56.326;43.882;2024-01-30T09:13:07;12.73;;;6.30;;
70301;SDS011;57706;56.326;43.882;2024-01-30T09:15:33;15.90;;;7.07;;
70301;SDS011;57706;56.326;43.882;2024-01-30T09:17:58;14.13;;;6.50;;
70301;SDS011;57706;56.326;43.882;2024-01-30T09:20:24;12.65;;;5.80;;
70301;SDS011;57706;56.326;43.882;2024-01-30T09:22:50;13.95;;;5.82;;
70301;SDS011;57706;56.326;43.882;2024-01-30T09:25:16;13.55;;;6.35;;
70301;SDS011;57706;56.326;43.882;2024-01-30T09:27:41;13.90;;;6.30;;
70301;SDS011;57706;56.326;43.882;2024-01-30T09:30:07;15.52;;;6.30;;
70301;SDS011;57706;56.326;43.882;2024-01-30T09:32:33;12.35;;;5.85;;
70301;SDS011;57706;56.326;43.882;2024-01-30T09:34:59;14.10;;;6.30;;
70301;SDS011;57706;56.326;43.882;2024-01-30T09:37:25;13.15;;;5.82;;
70301;SDS011;57706;56.326;43.882;2024-01-30T09:39:51;13.93;;;5.65;;
70301;SDS011;57706;56.326;43.882;2024-01-30T09:42:35;14.52;;;6.38;;
70301;SDS011;57706;56.326;43.882;2024-01-30T09:45:02;14.88;;;5.93;;
70301;SDS011;57706;56.326;43.882;2024-01-30T09:47:37;18.17;;;6.30;;
70301;SDS011;57706;56.326;43.882;2024-01-30T09:50:08;18.95;;;5.57;;
70301;SDS011;57706;56.326;43.882;2024-01-30T09:52:35;12.40;;;6.38;;
70301;SDS011;57706;56.326;43.882;2024-01-30T09:55:01;14.80;;;5.88;;
70301;SDS011;57706;56.326;43.882;2024-01-30T09:57:29;13.10;;;5.15;;
70301;SDS011;57706;56.326;43.882;2024-01-30T09:59:55;15.15;;;5.95;;
70301;SDS011;57706;56.326;43.882;2024-01-30T10:02:21;10.23;;;4.70;;
70301;SDS011;57706;56.326;43.882;2024-01-30T10:04:48;12.57;;;5.28;;
70301;SDS011;57706;56.326;43.882;2024-01-30T10:07:15;10.50;;;5.93;;
70301;SDS011;57706;56.326;43.882;2024-01-30T10:09:41;12.30;;;4.78;;
70301;SDS011;57706;56.326;43.882;2024-01-30T10:12:07;11.75;;;4.45;;
70301;SDS011;57706;56.326;43.882;2024-01-30T10:14:37;12.73;;;4.88;;
70301;SDS011;57706;56.326;43.882;2024-01-30T10:17:03;10.65;;;4.53;;
70301;SDS011;57706;56.326;43.882;2024-01-30T10:19:31;11.02;;;4.72;;
70301;SDS011;57706;56.326;43.882;2024-01-30T10:21:57;13.13;;;4.95;;
70301;SDS011;57706;56.326;43.882;2024-01-30T10:24:25;13.20;;;4.50;;
70301;SDS011;57706;56.326;43.882;2024-01-30T10:26:51;8.68;;;4.97;;
70301;SDS011;57706;56.326;43.882;2024-01-30T10:29:18;9.73;;;4.85;;
70301;SDS011;57706;56.326;43.882;2024-01-30T10:31:44;10.70;;;4.60;;
70301;SDS011;57706;56.326;43.882;2024-01-30T10:34:10;9.32;;;4.65;;
70301;SDS011;57706;56.326;43.882;2024-01-30T10:36:43;9.82;;;4.72;;
70301;SDS011;57706;56.326;43.882;2024-01-30T10:39:15;10.85;;;4.40;;
70301;SDS011;57706;56.326;43.882;2024-01-30T10:41:43;11.65;;;3.90;;
70301;SDS011;57706;56.326;43.882;2024-01-30T10:44:12;8.63;;;4.63;;
70301;SDS011;57706;56.326;43.882;2024-01-30T10:46:43;11.50;;;4.57;;
70301;SDS011;57706;56.326;43.882;2024-01-30T10:49:15;9.35;;;4.40;;
70301;SDS011;57706;56.326;43.882;2024-01-30T10:51:42;11.43;;;5.38;;
70301;SDS011;57706;56.326;43.882;2024-01-30T10:54:09;10.02;;;4.32;;
70301;SDS011;57706;56.326;43.882;2024-01-30T10:56:35;11.75;;;4.85;;
70301;SDS011;57706;56.326;43.882;2024-01-30T10:59:02;9.27;;;4.50;;
70301;SDS011;57706;56.326;43.882;2024-01-30T11:01:29;12.10;;;4.43;;
70301;SDS011;57706;56.326;43.882;2024-01-30T11:03:55;10.77;;;4.70;;
70301;SDS011;57706;56.326;43.882;2024-01-30T11:06:23;10.95;;;4.65;;
70301;SDS011;57706;56.326;43.882;2024-01-30T11:09:02;9.18;;;4.30;;
70301;SDS011;57706;56.326;43.882;2024-01-30T11:11:47;12.23;;;4.72;;
70301;SDS011;57706;56.326;43.882;2024-01-30T11:14:13;10.63;;;5.20;;
70301;SDS011;57706;56.326;43.882;2024-01-30T11:16:39;9.38;;;5.22;;
70301;SDS011;57706;56.326;43.882;2024-01-30T11:19:05;11.13;;;4.65;;
70301;SDS011;57706;56.326;43.882;2024-01-30T11:21:42;6.53;;;4.13;;
70301;SDS011;57706;56.326;43.882;2024-01-30T11:24:09;10.75;;;4.78;;
70301;SDS011;57706;56.326;43.882;2024-01-30T11:26:35;7.50;;;4.18;;
70301;SDS011;57706;56.326;43.882;2024-01-30T11:29:03;7.68;;;3.83;;
70301;SDS011;57706;56.326;43.882;2024-01-30T11:33:58;11.27;;;4.70;;
70301;SDS011;57706;56.326;43.882;2024-01-30T11:36:25;6.55;;;4.13;;
70301;SDS011;57706;56.326;43.882;2024-01-30T11:38:54;9.23;;;4.55;;
70301;SDS011;57706;56.326;43.882;2024-01-30T11:41:20;10.40;;;4.45;;
70301;SDS011;57706;56.326;43.882;2024-01-30T11:43:53;9.93;;;4.72;;
70301;SDS011;57706;56.326;43.882;2024-01-30T11:46:19;9.18;;;4.70;;
70301;SDS011;57706;56.326;43.882;2024-01-30T11:48:45;9.38;;;4.85;;
70301;SDS011;57706;56.326;43.882;2024-01-30T11:51:12;12.02;;;4.88;;
70301;SDS011;57706;56.326;43.882;2024-01-30T11:53:38;12.23;;;4.32;;
70301;SDS011;57706;56.326;43.882;2024-01-30T11:56:07;10.75;;;4.28;;
70301;SDS011;57706;56.326;43.882;2024-01-30T11:58:33;10.13;;;4.70;;
70301;SDS011;57706;56.326;43.882;2024-01-30T12:00:59;9.93;;;3.88;;
70301;SDS011;57706;56.326;43.882;2024-01-30T12:03:26;10.00;;;4.95;;
70301;SDS011;57706;56.326;43.882;2024-01-30T12:05:58;11.45;;;4.38;;
70301;SDS011;57706;56.326;43.882;2024-01-30T12:08:24;9.07;;;5.32;;
70301;SDS011;57706;56.326;43.882;2024-01-30T12:10:56;11.38;;;4.95;;
70301;SDS011;57706;56.326;43.882;2024-01-30T12:13:27;14.45;;;4.85;;
70301;SDS011;57706;56.326;43.882;2024-01-30T12:15:54;9.65;;;4.85;;
70301;SDS011;57706;56.326;43.882;2024-01-30T12:18:21;8.98;;;4.90;;
70301;SDS011;57706;56.326;43.882;2024-01-30T12:20:56;10.80;;;5.93;;
70301;SDS011;57706;56.326;43.882;2024-01-30T12:23:24;12.68;;;5.07;;
70301;SDS011;57706;56.326;43.882;2024-01-30T12:25:51;13.75;;;5.38;;
70301;SDS011;57706;56.326;43.882;2024-01-30T12:28:17;14.23;;;6.50;;
70301;SDS011;57706;56.326;43.882;2024-01-30T12:30:43;17.35;;;6.35;;
70301;SDS011;57706;56.326;43.882;2024-01-30T12:33:09;15.45;;;5.45;;
70301;SDS011;57706;56.326;43.882;2024-01-30T12:35:35;13.95;;;5.95;;
70301;SDS011;57706;56.326;43.882;2024-01-30T12:38:01;12.23;;;6.07;;
70301;SDS011;57706;56.326;43.882;2024-01-30T12:40:27;14.75;;;5.57;;
70301;SDS011;57706;56.326;43.882;2024-01-30T12:42:54;12.55;;;5.90;;
70301;SDS011;57706;56.326;43.882;2024-01-30T12:45:19;14.50;;;5.35;;
70301;SDS011;57706;56.326;43.882;2024-01-30T12:47:47;13.27;;;7.00;;
70301;SDS011;57706;56.326;43.882;2024-01-30T12:50:13;15.18;;;6.03;;
70301;SDS011;57706;56.326;43.882;2024-01-30T12:52:42;14.65;;;6.40;;
70301;SDS011;57706;56.326;43.882;2024-01-30T12:55:08;13.85;;;7.10;;
70301;SDS011;57706;56.326;43.882;2024-01-30T12:57:34;11.73;;;7.20;;
70301;SDS011;57706;56.326;43.882;2024-01-30T13:00:00;14.48;;;6.70;;
70301;SDS011;57706;56.326;43.882;2024-01-30T13:02:26;13.63;;;6.68;;
70301;SDS011;57706;56.326;43.882;2024-01-30T13:04:55;13.00;;;6.28;;
70301;SDS011;57706;56.326;43.882;2024-01-30T13:07:21;14.05;;;6.57;;
70301;SDS011;57706;56.326;43.882;2024-01-30T13:09:47;11.57;;;6.30;;
70301;SDS011;57706;56.326;43.882;2024-01-30T13:12:13;12.10;;;5.72;;
70301;SDS011;57706;56.326;43.882;2024-01-30T13:14:38;14.73;;;6.32;;
70301;SDS011;57706;56.326;43.882;2024-01-30T13:17:04;17.02;;;6.20;;
70301;SDS011;57706;56.326;43.882;2024-01-30T13:19:30;16.70;;;6.53;;
70301;SDS011;57706;56.326;43.882;2024-01-30T13:21:56;13.25;;;6.60;;
70301;SDS011;57706;56.326;43.882;2024-01-30T13:24:21;11.27;;;6.80;;
70301;SDS011;57706;56.326;43.882;2024-01-30T13:26:48;15.55;;;6.97;;
70301;SDS011;57706;56.326;43.882;2024-01-30T13:29:14;11.52;;;5.28;;
70301;SDS011;57706;56.326;43.882;2024-01-30T13:31:40;15.45;;;6.13;;
70301;SDS011;57706;56.326;43.882;2024-01-30T13:34:06;19.02;;;7.43;;
70301;SDS011;57706;56.326;43.882;2024-01-30T13:36:32;19.40;;;7.57;;
70301;SDS011;57706;56.326;43.882;2024-01-30T13:38:58;17.83;;;7.15;;
70301;SDS011;57706;56.326;43.882;2024-01-30T13:41:24;15.07;;;6.85;;
70301;SDS011;57706;56.326;43.882;2024-01-30T13:43:49;15.65;;;6.95;;
70301;SDS011;57706;56.326;43.882;2024-01-30T13:46:15;18.33;;;8.45;;
70301;SDS011;57706;56.326;43.882;2024-01-30T13:48:41;15.82;;;8.00;;
70301;SDS011;57706;56.326;43.882;2024-01-30T13:51:07;17.55;;;6.72;;
70301;SDS011;57706;56.326;43.882;2024-01-30T13:53:33;13.52;;;6.47;;
70301;SDS011;57706;56.326;43.882;2024-01-30T13:55:58;16.88;;;7.43;;
70301;SDS011;57706;56.326;43.882;2024-01-30T13:58:24;14.15;;;6.88;;
70301;SDS011;57706;56.326;43.882;2024-01-30T14:00:50;16.08;;;7.32;;
70301;SDS011;57706;56.326;43.882;2024-01-30T14:03:16;15.65;;;7.63;;
70301;SDS011;57706;56.326;43.882;2024-01-30T14:05:42;22.15;;;8.50;;
70301;SDS011;57706;56.326;43.882;2024-01-30T14:08:07;15.45;;;6.85;;
70301;SDS011;57706;56.326;43.882;2024-01-30T14:10:34;15.38;;;7.43;;
70301;SDS011;57706;56.326;43.882;2024-01-30T14:13:00;18.77;;;8.60;;
70301;SDS011;57706;56.326;43.882;2024-01-30T14:15:25;15.93;;;7.22;;
70301;SDS011;57706;56.326;43.882;2024-01-30T14:17:51;19.50;;;7.00;;
70301;SDS011;57706;56.326;43.882;2024-01-30T14:20:17;14.02;;;7.20;;
70301;SDS011;57706;56.326;43.882;2024-01-30T14:22:43;14.15;;;7.10;;